sensor_id;sensor_type;location;lat;lon;timestamp;pressure;altitude;pressure_sealevel;temperature;humidity
56568;BME280;42456;49.956;20.004;2023-03-20T00:01:45;98305.55;;;3.77;69.30
56568;BME280;42456;49.956;20.004;2023-03-20T00:04:13;98309.34;;;3.74;69.32
56568;BME280;42456;49.956;20.004;2023-03-20T00:06:40;98310.05;;;3.73;69.50
56568;BME280;42456;49.956;20.004;2023-03-20T00:09:06;98313.75;;;3.71;69.62
56568;BME280;42456;49.956;20.004;2023-03-20T00:11:36;98314.27;;;3.67;69.48
56568;BME280;42456;49.956;20.004;2023-03-20T00:14:12;98312.70;;;3.64;69.62
56568;BME280;42456;49.956;20.004;2023-03-20T00:16:41;98312.88;;;3.63;69.75
56568;BME280;42456;49.956;20.004;2023-03-20T00:19:18;98314.23;;;3.66;69.73
56568;BME280;42456;49.956;20.004;2023-03-20T00:21:45;98314.95;;;3.68;69.98
56568;BME280;42456;49.956;20.004;2023-03-20T00:24:14;98313.86;;;3.70;69.91
56568;BME280;42456;49.956;20.004;2023-03-20T00:26:43;98312.41;;;3.73;70.21
56568;BME280;42456;49.956;20.004;2023-03-20T00:29:25;98315.89;;;3.75;70.09
56568;BME280;42456;49.956;20.004;2023-03-20T00:31:54;98316.25;;;3.76;69.94
56568;BME280;42456;49.956;20.004;2023-03-20T00:34:22;98310.55;;;3.75;69.99
56568;BME280;42456;49.956;20.004;2023-03-20T00:36:52;98307.79;;;3.76;70.06
56568;BME280;42456;49.956;20.004;2023-03-20T00:39:19;98311.14;;;3.76;70.11
56568;BME280;42456;49.956;20.004;2023-03-20T00:41:54;98306.58;;;3.75;70.24
56568;BME280;42456;49.956;20.004;2023-03-20T00:44:30;98304.98;;;3.74;70.28
56568;BME280;42456;49.956;20.004;2023-03-20T00:46:59;98309.54;;;3.73;70.49
56568;BME280;42456;49.956;20.004;2023-03-20T00:49:32;98305.98;;;3.71;70.46
56568;BME280;42456;49.956;20.004;2023-03-20T00:52:01;98306.23;;;3.67;70.49
56568;BME280;42456;49.956;20.004;2023-03-20T00:54:29;98300.76;;;3.63;70.49
56568;BME280;42456;49.956;20.004;2023-03-20T00:56:57;98300.95;;;3.59;70.43
56568;BME280;42456;49.956;20.004;2023-03-20T00:59:31;98300.67;;;3.57;70.68
56568;BME280;42456;49.956;20.004;2023-03-20T01:02:00;98299.85;;;3.53;70.56
56568;BME280;42456;49.956;20.004;2023-03-20T01:04:35;98301.40;;;3.52;70.76
56568;BME280;42456;49.956;20.004;2023-03-20T01:07:03;98297.02;;;3.49;71.07
56568;BME280;42456;49.956;20.004;2023-03-20T01:09:30;98298.03;;;3.45;71.03
56568;BME280;42456;49.956;20.004;2023-03-20T01:11:58;98299.04;;;3.45;71.20
56568;BME280;42456;49.956;20.004;2023-03-20T01:14:25;98298.13;;;3.44;71.35
56568;BME280;42456;49.956;20.004;2023-03-20T01:16:52;98296.42;;;3.46;71.11
56568;BME280;42456;49.956;20.004;2023-03-20T01:19:19;98293.42;;;3.48;71.47
56568;BME280;42456;49.956;20.004;2023-03-20T01:21:46;98297.64;;;3.51;71.53
56568;BME280;42456;49.956;20.004;2023-03-20T01:24:13;98295.54;;;3.54;71.34
56568;BME280;42456;49.956;20.004;2023-03-20T01:26:41;98293.14;;;3.55;71.29
56568;BME280;42456;49.956;20.004;2023-03-20T01:29:27;98291.80;;;3.56;71.12
56568;BME280;42456;49.956;20.004;2023-03-20T01:31:53;98294.41;;;3.55;71.35
56568;BME280;42456;49.956;20.004;2023-03-20T01:34:20;98293.40;;;3.55;71.49
56568;BME280;42456;49.956;20.004;2023-03-20T01:36:53;98290.83;;;3.52;71.21
56568;BME280;42456;49.956;20.004;2023-03-20T01:39:35;98291.44;;;3.49;71.37
56568;BME280;42456;49.956;20.004;2023-03-20T01:42:02;98291.54;;;3.45;71.49
56568;BME280;42456;49.956;20.004;2023-03-20T01:44:33;98289.34;;;3.41;71.43
56568;BME280;42456;49.956;20.004;2023-03-20T01:47:01;98289.06;;;3.37;71.67
56568;BME280;42456;49.956;20.004;2023-03-20T01:50:13;98294.99;;;3.34;71.73
56568;BME280;42456;49.956;20.004;2023-03-20T01:52:33;98292.71;;;3.29;71.86
56568;BME280;42456;49.956;20.004;2023-03-20T01:55:00;98293.60;;;3.26;71.82
56568;BME280;42456;49.956;20.004;2023-03-20T01:57:29;98291.32;;;3.24;71.84
56568;BME280;42456;49.956;20.004;2023-03-20T02:00:03;98290.88;;;3.22;71.83
56568;BME280;42456;49.956;20.004;2023-03-20T02:02:31;98286.86;;;3.20;71.96
56568;BME280;42456;49.956;20.004;2023-03-20T02:05:04;98284.69;;;3.18;71.68
56568;BME280;42456;49.956;20.004;2023-03-20T02:07:33;98286.07;;;3.18;72.08
56568;BME280;42456;49.956;20.004;2023-03-20T02:10:03;98286.74;;;3.20;72.08
56568;BME280;42456;49.956;20.004;2023-03-20T02:12:32;98289.64;;;3.23;71.91
56568;BME280;42456;49.956;20.004;2023-03-20T02:14:59;98289.45;;;3.26;71.97
56568;BME280;42456;49.956;20.004;2023-03-20T02:17:26;98288.31;;;3.29;72.12
56568;BME280;42456;49.956;20.004;2023-03-20T02:31:04;98295.36;;;3.51;71.94
56568;BME280;42456;49.956;20.004;2023-03-20T02:39:16;98293.15;;;3.53;71.66
56568;BME280;42456;49.956;20.004;2023-03-20T03:00:29;98287.84;;;3.47;71.49
56568;BME280;42456;49.956;20.004;2023-03-20T03:03:11;98287.73;;;3.44;71.51
56568;BME280;42456;49.956;20.004;2023-03-20T03:05:44;98285.09;;;3.41;71.47
56568;BME280;42456;49.956;20.004;2023-03-20T03:08:15;98277.23;;;3.40;71.55
56568;BME280;42456;49.956;20.004;2023-03-20T03:10:48;98275.51;;;3.39;71.58
56568;BME280;42456;49.956;20.004;2023-03-20T03:13:20;98275.13;;;3.39;71.74
56568;BME280;42456;49.956;20.004;2023-03-20T03:15:53;98272.89;;;3.38;71.55
56568;BME280;42456;49.956;20.004;2023-03-20T03:18:23;98270.93;;;3.39;71.64
56568;BME280;42456;49.956;20.004;2023-03-20T03:20:55;98274.76;;;3.39;71.51
56568;BME280;42456;49.956;20.004;2023-03-20T03:25:57;98270.96;;;3.40;71.80
56568;BME280;42456;49.956;20.004;2023-03-20T03:28:57;98270.10;;;3.41;71.71
56568;BME280;42456;49.956;20.004;2023-03-20T03:31:28;98270.09;;;3.42;71.97
56568;BME280;42456;49.956;20.004;2023-03-20T03:33:57;98268.06;;;3.42;71.76
56568;BME280;42456;49.956;20.004;2023-03-20T03:39:40;98268.14;;;3.45;71.84
56568;BME280;42456;49.956;20.004;2023-03-20T03:42:23;98268.77;;;3.46;71.80
56568;BME280;42456;49.956;20.004;2023-03-20T03:47:35;98266.42;;;3.46;71.64
56568;BME280;42456;49.956;20.004;2023-03-20T03:50:14;98263.24;;;3.46;71.88
56568;BME280;42456;49.956;20.004;2023-03-20T03:52:43;98261.05;;;3.47;71.78
56568;BME280;42456;49.956;20.004;2023-03-20T03:55:17;98264.52;;;3.46;71.68
56568;BME280;42456;49.956;20.004;2023-03-20T03:57:55;98259.84;;;3.45;71.74
56568;BME280;42456;49.956;20.004;2023-03-20T04:00:25;98263.83;;;3.45;71.76
56568;BME280;42456;49.956;20.004;2023-03-20T04:02:56;98257.67;;;3.44;71.79
56568;BME280;42456;49.956;20.004;2023-03-20T04:05:27;98262.64;;;3.43;71.63
56568;BME280;42456;49.956;20.004;2023-03-20T04:07:58;98260.91;;;3.41;71.59
56568;BME280;42456;49.956;20.004;2023-03-20T04:10:26;98265.08;;;3.39;71.74
56568;BME280;42456;49.956;20.004;2023-03-20T04:12:53;98266.70;;;3.36;71.64
56568;BME280;42456;49.956;20.004;2023-03-20T04:15:20;98265.75;;;3.36;71.70
56568;BME280;42456;49.956;20.004;2023-03-20T04:17:47;98268.73;;;3.34;71.74
56568;BME280;42456;49.956;20.004;2023-03-20T04:20:14;98268.17;;;3.32;71.66
56568;BME280;42456;49.956;20.004;2023-03-20T04:22:41;98270.95;;;3.33;71.86
56568;BME280;42456;49.956;20.004;2023-03-20T04:25:13;98271.52;;;3.33;71.89
56568;BME280;42456;49.956;20.004;2023-03-20T04:27:40;98269.38;;;3.35;71.82
56568;BME280;42456;49.956;20.004;2023-03-20T04:30:08;98267.18;;;3.36;71.78
56568;BME280;42456;49.956;20.004;2023-03-20T04:32:35;98269.06;;;3.38;71.90
56568;BME280;42456;49.956;20.004;2023-03-20T04:35:02;98269.63;;;3.41;71.79
56568;BME280;42456;49.956;20.004;2023-03-20T04:37:29;98268.81;;;3.42;71.90
56568;BME280;42456;49.956;20.004;2023-03-20T04:39:56;98264.42;;;3.44;71.80
56568;BME280;42456;49.956;20.004;2023-03-20T04:42:23;98268.25;;;3.45;71.80
56568;BME280;42456;49.956;20.004;2023-03-20T04:44:49;98271.27;;;3.46;71.84
56568;BME280;42456;49.956;20.004;2023-03-20T04:47:16;98272.96;;;3.48;71.84
56568;BME280;42456;49.956;20.004;2023-03-20T04:49:43;98272.36;;;3.49;72.06
56568;BME280;42456;49.956;20.004;2023-03-20T04:52:10;98271.65;;;3.50;72.00
56568;BME280;42456;49.956;20.004;2023-03-20T04:54:37;98271.11;;;3.51;71.73
56568;BME280;42456;49.956;20.004;2023-03-20T04:57:04;98273.71;;;3.52;71.69
56568;BME280;42456;49.956;20.004;2023-03-20T04:59:31;98269.59;;;3.53;71.79
56568;BME280;42456;49.956;20.004;2023-03-20T05:01:57;98271.23;;;3.54;71.93
56568;BME280;42456;49.956;20.004;2023-03-20T05:04:24;98272.40;;;3.54;72.06
56568;BME280;42456;49.956;20.004;2023-03-20T05:06:51;98273.29;;;3.55;71.79
56568;BME280;42456;49.956;20.004;2023-03-20T05:09:18;98270.30;;;3.57;71.93
56568;BME280;42456;49.956;20.004;2023-03-20T05:11:45;98274.80;;;3.58;72.14
56568;BME280;42456;49.956;20.004;2023-03-20T05:14:12;98272.77;;;3.59;72.11
56568;BME280;42456;49.956;20.004;2023-03-20T05:16:39;98276.31;;;3.62;72.20
56568;BME280;42456;49.956;20.004;2023-03-20T05:19:06;98273.39;;;3.65;72.00
56568;BME280;42456;49.956;20.004;2023-03-20T05:21:33;98276.30;;;3.70;72.21
56568;BME280;42456;49.956;20.004;2023-03-20T05:24:00;98277.63;;;3.75;72.23
56568;BME280;42456;49.956;20.004;2023-03-20T05:26:27;98280.42;;;3.81;72.46
56568;BME280;42456;49.956;20.004;2023-03-20T05:28:54;98283.33;;;3.88;72.38
56568;BME280;42456;49.956;20.004;2023-03-20T05:31:21;98283.02;;;3.97;72.06
56568;BME280;42456;49.956;20.004;2023-03-20T05:33:48;98284.45;;;4.05;71.90
56568;BME280;42456;49.956;20.004;2023-03-20T05:36:15;98285.77;;;4.13;72.03
56568;BME280;42456;49.956;20.004;2023-03-20T05:38:41;98283.80;;;4.22;71.99
56568;BME280;42456;49.956;20.004;2023-03-20T05:41:16;98286.20;;;4.30;72.08
56568;BME280;42456;49.956;20.004;2023-03-20T05:43:44;98286.17;;;4.39;71.75
56568;BME280;42456;49.956;20.004;2023-03-20T05:46:11;98289.82;;;4.48;71.68
56568;BME280;42456;49.956;20.004;2023-03-20T05:48:37;98289.45;;;4.54;71.63
56568;BME280;42456;49.956;20.004;2023-03-20T05:51:05;98294.89;;;4.62;72.43
56568;BME280;42456;49.956;20.004;2023-03-20T05:53:32;98292.70;;;4.68;72.58
56568;BME280;42456;49.956;20.004;2023-03-20T05:55:58;98295.57;;;4.76;72.91
56568;BME280;42456;49.956;20.004;2023-03-20T05:58:25;98289.77;;;4.83;72.70
56568;BME280;42456;49.956;20.004;2023-03-20T06:00:52;98293.83;;;4.91;72.24
56568;BME280;42456;49.956;20.004;2023-03-20T06:03:39;98294.39;;;4.99;72.03
56568;BME280;42456;49.956;20.004;2023-03-20T06:06:06;98291.80;;;5.08;72.17
56568;BME280;42456;49.956;20.004;2023-03-20T06:08:33;98290.26;;;5.13;72.26
56568;BME280;42456;49.956;20.004;2023-03-20T06:11:02;98291.94;;;5.18;72.39
56568;BME280;42456;49.956;20.004;2023-03-20T06:13:29;98290.68;;;5.22;72.10
56568;BME280;42456;49.956;20.004;2023-03-20T06:15:56;98293.98;;;5.26;72.16
56568;BME280;42456;49.956;20.004;2023-03-20T06:18:23;98292.00;;;5.29;72.34
56568;BME280;42456;49.956;20.004;2023-03-20T06:20:54;98296.77;;;5.31;72.34
56568;BME280;42456;49.956;20.004;2023-03-20T06:23:22;98293.30;;;5.34;71.84
56568;BME280;42456;49.956;20.004;2023-03-20T06:25:49;98295.88;;;5.36;72.35
56568;BME280;42456;49.956;20.004;2023-03-20T06:28:17;98298.20;;;5.38;71.85
56568;BME280;42456;49.956;20.004;2023-03-20T06:30:43;98303.11;;;5.40;71.95
56568;BME280;42456;49.956;20.004;2023-03-20T06:33:10;98308.01;;;5.44;71.80
56568;BME280;42456;49.956;20.004;2023-03-20T06:35:37;98306.31;;;5.51;72.06
56568;BME280;42456;49.956;20.004;2023-03-20T06:38:05;98308.59;;;5.59;72.02
56568;BME280;42456;49.956;20.004;2023-03-20T06:40:31;98312.92;;;5.69;71.90
56568;BME280;42456;49.956;20.004;2023-03-20T06:42:59;98318.61;;;5.86;71.71
56568;BME280;42456;49.956;20.004;2023-03-20T06:45:26;98317.20;;;6.09;71.72
56568;BME280;42456;49.956;20.004;2023-03-20T06:47:52;98315.30;;;6.30;72.17
56568;BME280;42456;49.956;20.004;2023-03-20T06:50:19;98319.45;;;6.51;71.94
56568;BME280;42456;49.956;20.004;2023-03-20T06:52:46;98320.65;;;6.70;72.09
56568;BME280;42456;49.956;20.004;2023-03-20T06:55:13;98321.74;;;6.93;71.10
56568;BME280;42456;49.956;20.004;2023-03-20T06:57:41;98328.86;;;7.14;70.30
56568;BME280;42456;49.956;20.004;2023-03-20T07:00:08;98329.73;;;7.33;70.36
56568;BME280;42456;49.956;20.004;2023-03-20T07:02:35;98329.80;;;7.51;69.90
56568;BME280;42456;49.956;20.004;2023-03-20T07:05:02;98332.64;;;7.67;69.77
56568;BME280;42456;49.956;20.004;2023-03-20T07:07:29;98334.10;;;7.78;69.29
56568;BME280;42456;49.956;20.004;2023-03-20T07:09:57;98333.49;;;7.91;69.35
56568;BME280;42456;49.956;20.004;2023-03-20T07:12:23;98335.93;;;8.11;68.91
56568;BME280;42456;49.956;20.004;2023-03-20T07:14:54;98327.56;;;8.37;68.29
56568;BME280;42456;49.956;20.004;2023-03-20T07:17:21;98335.09;;;8.62;66.64
56568;BME280;42456;49.956;20.004;2023-03-20T07:19:49;98330.88;;;8.88;65.39
56568;BME280;42456;49.956;20.004;2023-03-20T07:22:23;98328.52;;;9.09;64.76
56568;BME280;42456;49.956;20.004;2023-03-20T07:24:51;98325.98;;;9.29;63.95
56568;BME280;42456;49.956;20.004;2023-03-20T07:27:18;98327.09;;;9.48;62.90
56568;BME280;42456;49.956;20.004;2023-03-20T07:29:45;98324.83;;;9.64;62.45
56568;BME280;42456;49.956;20.004;2023-03-20T07:32:12;98318.28;;;9.84;61.86
56568;BME280;42456;49.956;20.004;2023-03-20T07:34:39;98319.79;;;10.12;61.77
56568;BME280;42456;49.956;20.004;2023-03-20T07:37:06;98316.55;;;10.46;61.37
56568;BME280;42456;49.956;20.004;2023-03-20T07:39:33;98320.93;;;10.80;61.04
56568;BME280;42456;49.956;20.004;2023-03-20T07:42:00;98322.02;;;11.08;60.37
56568;BME280;42456;49.956;20.004;2023-03-20T07:44:27;98322.55;;;11.25;59.30
56568;BME280;42456;49.956;20.004;2023-03-20T07:46:54;98324.48;;;11.40;58.45
56568;BME280;42456;49.956;20.004;2023-03-20T07:49:22;98331.85;;;11.53;57.58
56568;BME280;42456;49.956;20.004;2023-03-20T07:51:49;98334.87;;;11.68;57.19
56568;BME280;42456;49.956;20.004;2023-03-20T07:54:17;98331.89;;;11.94;56.54
56568;BME280;42456;49.956;20.004;2023-03-20T07:56:44;98333.58;;;12.22;56.34
56568;BME280;42456;49.956;20.004;2023-03-20T07:59:13;98330.82;;;12.43;55.78
56568;BME280;42456;49.956;20.004;2023-03-20T08:01:40;98320.52;;;12.63;55.44
56568;BME280;42456;49.956;20.004;2023-03-20T08:04:14;98322.61;;;12.82;54.80
56568;BME280;42456;49.956;20.004;2023-03-20T08:06:45;98318.90;;;13.02;54.36
56568;BME280;42456;49.956;20.004;2023-03-20T08:09:12;98321.38;;;13.24;54.13
56568;BME280;42456;49.956;20.004;2023-03-20T08:11:39;98321.64;;;13.40;53.81
56568;BME280;42456;49.956;20.004;2023-03-20T08:14:07;98323.77;;;13.50;52.96
56568;BME280;42456;49.956;20.004;2023-03-20T08:16:36;98324.72;;;13.57;52.34
56568;BME280;42456;49.956;20.004;2023-03-20T08:19:03;98326.83;;;13.60;51.60
56568;BME280;42456;49.956;20.004;2023-03-20T08:21:32;98330.35;;;13.65;51.71
56568;BME280;42456;49.956;20.004;2023-03-20T08:23:59;98328.95;;;13.70;51.56
56568;BME280;42456;49.956;20.004;2023-03-20T08:26:26;98331.96;;;13.77;51.32
56568;BME280;42456;49.956;20.004;2023-03-20T08:28:53;98336.39;;;13.86;51.41
56568;BME280;42456;49.956;20.004;2023-03-20T08:31:20;98331.79;;;14.00;51.69
56568;BME280;42456;49.956;20.004;2023-03-20T08:33:47;98332.53;;;14.12;51.57
56568;BME280;42456;49.956;20.004;2023-03-20T08:36:15;98329.35;;;14.23;51.56
56568;BME280;42456;49.956;20.004;2023-03-20T08:38:47;98333.77;;;14.33;51.31
56568;BME280;42456;49.956;20.004;2023-03-20T08:41:17;98334.23;;;14.39;51.50
56568;BME280;42456;49.956;20.004;2023-03-20T08:43:45;98335.72;;;14.47;51.77
56568;BME280;42456;49.956;20.004;2023-03-20T08:46:13;98337.44;;;14.54;51.59
56568;BME280;42456;49.956;20.004;2023-03-20T08:48:40;98331.02;;;14.61;51.41
56568;BME280;42456;49.956;20.004;2023-03-20T08:51:07;98335.08;;;14.69;51.40
56568;BME280;42456;49.956;20.004;2023-03-20T08:53:35;98334.56;;;14.78;51.73
56568;BME280;42456;49.956;20.004;2023-03-20T08:56:02;98332.08;;;14.84;51.74
56568;BME280;42456;49.956;20.004;2023-03-20T08:58:30;98334.08;;;14.91;52.14
56568;BME280;42456;49.956;20.004;2023-03-20T09:01:04;98333.72;;;15.00;52.61
56568;BME280;42456;49.956;20.004;2023-03-20T09:03:32;98336.24;;;15.14;52.70
56568;BME280;42456;49.956;20.004;2023-03-20T09:05:59;98333.54;;;15.25;51.99
56568;BME280;42456;49.956;20.004;2023-03-20T09:08:26;98330.77;;;15.34;52.27
56568;BME280;42456;49.956;20.004;2023-03-20T09:10:53;98331.70;;;15.41;51.94
56568;BME280;42456;49.956;20.004;2023-03-20T09:13:20;98331.35;;;15.42;51.39
56568;BME280;42456;49.956;20.004;2023-03-20T09:15:54;98334.48;;;15.37;51.06
56568;BME280;42456;49.956;20.004;2023-03-20T09:18:21;98337.62;;;15.28;50.42
56568;BME280;42456;49.956;20.004;2023-03-20T09:20:49;98338.89;;;15.25;51.44
56568;BME280;42456;49.956;20.004;2023-03-20T09:23:16;98336.73;;;15.29;51.65
56568;BME280;42456;49.956;20.004;2023-03-20T09:25:45;98334.88;;;15.34;51.54
56568;BME280;42456;49.956;20.004;2023-03-20T09:28:12;98337.31;;;15.38;51.37
56568;BME280;42456;49.956;20.004;2023-03-20T09:30:39;98339.48;;;15.42;51.08
56568;BME280;42456;49.956;20.004;2023-03-20T09:33:07;98339.96;;;15.39;50.19
56568;BME280;42456;49.956;20.004;2023-03-20T09:35:43;98339.66;;;15.37;50.12
56568;BME280;42456;49.956;20.004;2023-03-20T09:38:12;98337.15;;;15.36;50.20
56568;BME280;42456;49.956;20.004;2023-03-20T09:40:50;98334.84;;;15.36;50.15
56568;BME280;42456;49.956;20.004;2023-03-20T09:51:43;98347.14;;;15.80;51.26
56568;BME280;42456;49.956;20.004;2023-03-20T09:54:36;98350.70;;;15.97;51.08
56568;BME280;42456;49.956;20.004;2023-03-20T09:57:23;98349.45;;;16.15;50.00
56568;BME280;42456;49.956;20.004;2023-03-20T09:59:56;98352.39;;;16.24;49.73
56568;BME280;42456;49.956;20.004;2023-03-20T10:02:39;98344.23;;;16.31;49.30
56568;BME280;42456;49.956;20.004;2023-03-20T10:05:25;98348.38;;;16.34;48.95
56568;BME280;42456;49.956;20.004;2023-03-20T10:07:55;98347.08;;;16.35;48.83
56568;BME280;42456;49.956;20.004;2023-03-20T10:10:24;98349.48;;;16.36;48.82
56568;BME280;42456;49.956;20.004;2023-03-20T10:13:11;98342.15;;;16.32;48.32
56568;BME280;42456;49.956;20.004;2023-03-20T10:15:49;98342.73;;;16.31;48.56
56568;BME280;42456;49.956;20.004;2023-03-20T10:18:26;98345.17;;;16.32;48.38
56568;BME280;42456;49.956;20.004;2023-03-20T10:20:58;98348.05;;;16.33;48.43
56568;BME280;42456;49.956;20.004;2023-03-20T10:23:34;98343.77;;;16.36;48.30
56568;BME280;42456;49.956;20.004;2023-03-20T10:26:10;98342.80;;;16.39;48.12
56568;BME280;42456;49.956;20.004;2023-03-20T10:28:49;98342.20;;;16.40;47.96
56568;BME280;42456;49.956;20.004;2023-03-20T10:34:18;98342.70;;;16.47;48.04
56568;BME280;42456;49.956;20.004;2023-03-20T10:42:03;98335.60;;;16.59;48.19
56568;BME280;42456;49.956;20.004;2023-03-20T10:44:42;98329.23;;;16.64;48.52
56568;BME280;42456;49.956;20.004;2023-03-20T10:47:15;98323.86;;;16.74;48.80
56568;BME280;42456;49.956;20.004;2023-03-20T10:49:48;98322.71;;;16.85;48.99
56568;BME280;42456;49.956;20.004;2023-03-20T10:52:24;98316.54;;;16.88;48.35
56568;BME280;42456;49.956;20.004;2023-03-20T11:16:36;98316.48;;;16.79;49.92
56568;BME280;42456;49.956;20.004;2023-03-20T11:19:35;98317.73;;;16.85;49.99
56568;BME280;42456;49.956;20.004;2023-03-20T11:22:21;98302.86;;;16.94;50.15
56568;BME280;42456;49.956;20.004;2023-03-20T11:24:57;98297.64;;;17.04;50.37
56568;BME280;42456;49.956;20.004;2023-03-20T11:27:31;98292.98;;;17.17;50.75
56568;BME280;42456;49.956;20.004;2023-03-20T11:38:12;98293.04;;;17.48;50.30
56568;BME280;42456;49.956;20.004;2023-03-20T11:40:41;98297.58;;;17.39;50.16
56568;BME280;42456;49.956;20.004;2023-03-20T11:45:45;98298.27;;;17.18;50.17
56568;BME280;42456;49.956;20.004;2023-03-20T11:51:22;98303.82;;;16.90;50.14
56568;BME280;42456;49.956;20.004;2023-03-20T11:54:05;98302.20;;;16.78;49.99
56568;BME280;42456;49.956;20.004;2023-03-20T11:56:50;98301.98;;;16.67;50.39
56568;BME280;42456;49.956;20.004;2023-03-20T11:59:18;98298.80;;;16.62;50.64
56568;BME280;42456;49.956;20.004;2023-03-20T12:01:51;98301.59;;;16.62;50.95
56568;BME280;42456;49.956;20.004;2023-03-20T12:09:56;98298.98;;;16.70;51.91
56568;BME280;42456;49.956;20.004;2023-03-20T12:18:43;98294.08;;;16.80;52.58
56568;BME280;42456;49.956;20.004;2023-03-20T12:23:42;98294.55;;;16.64;52.62
56568;BME280;42456;49.956;20.004;2023-03-20T12:29:46;98294.00;;;16.43;52.94
56568;BME280;42456;49.956;20.004;2023-03-20T12:33:06;98290.44;;;16.34;52.91
56568;BME280;42456;49.956;20.004;2023-03-20T12:35:51;98290.27;;;16.23;53.31
56568;BME280;42456;49.956;20.004;2023-03-20T12:43:04;98286.34;;;16.08;53.69
56568;BME280;42456;49.956;20.004;2023-03-20T12:56:05;98277.39;;;16.32;54.22
56568;BME280;42456;49.956;20.004;2023-03-20T13:01:29;98278.45;;;16.41;54.06
56568;BME280;42456;49.956;20.004;2023-03-20T13:06:55;98276.58;;;16.49;54.11
56568;BME280;42456;49.956;20.004;2023-03-20T13:09:57;98272.48;;;16.49;53.93
56568;BME280;42456;49.956;20.004;2023-03-20T13:23:11;98271.15;;;16.44;53.93
56568;BME280;42456;49.956;20.004;2023-03-20T13:39:22;98257.23;;;16.33;53.95
56568;BME280;42456;49.956;20.004;2023-03-20T13:41:51;98250.92;;;16.30;54.02
56568;BME280;42456;49.956;20.004;2023-03-20T13:44:22;98252.05;;;16.27;53.99
56568;BME280;42456;49.956;20.004;2023-03-20T13:52:18;98255.20;;;16.06;54.12
56568;BME280;42456;49.956;20.004;2023-03-20T13:57:58;98252.94;;;15.90;54.38
56568;BME280;42456;49.956;20.004;2023-03-20T14:00:52;98251.45;;;15.85;54.45
56568;BME280;42456;49.956;20.004;2023-03-20T14:03:37;98251.11;;;15.82;54.60
56568;BME280;42456;49.956;20.004;2023-03-20T14:08:53;98246.73;;;15.80;54.72
56568;BME280;42456;49.956;20.004;2023-03-20T14:13:54;98242.52;;;15.83;54.44
56568;BME280;42456;49.956;20.004;2023-03-20T14:16:22;98241.02;;;15.86;54.52
56568;BME280;42456;49.956;20.004;2023-03-20T14:19:02;98238.50;;;15.88;54.29
56568;BME280;42456;49.956;20.004;2023-03-20T14:21:30;98242.98;;;15.92;53.92
56568;BME280;42456;49.956;20.004;2023-03-20T14:24:03;98244.75;;;15.92;53.37
56568;BME280;42456;49.956;20.004;2023-03-20T14:26:37;98236.70;;;15.91;53.45
56568;BME280;42456;49.956;20.004;2023-03-20T14:31:38;98239.70;;;15.81;53.29
56568;BME280;42456;49.956;20.004;2023-03-20T14:34:15;98237.45;;;15.76;53.46
56568;BME280;42456;49.956;20.004;2023-03-20T14:36:57;98233.48;;;15.70;53.87
56568;BME280;42456;49.956;20.004;2023-03-20T14:39:45;98237.48;;;15.64;53.89
56568;BME280;42456;49.956;20.004;2023-03-20T14:47:42;98237.56;;;15.38;54.39
56568;BME280;42456;49.956;20.004;2023-03-20T15:04:00;98241.58;;;14.77;55.46
56568;BME280;42456;49.956;20.004;2023-03-20T15:06:30;98238.37;;;14.68;55.76
56568;BME280;42456;49.956;20.004;2023-03-20T15:09:07;98238.01;;;14.62;56.01
56568;BME280;42456;49.956;20.004;2023-03-20T15:11:36;98240.96;;;14.55;56.10
56568;BME280;42456;49.956;20.004;2023-03-20T15:14:06;98240.73;;;14.48;56.35
56568;BME280;42456;49.956;20.004;2023-03-20T15:16:36;98238.14;;;14.43;56.61
56568;BME280;42456;49.956;20.004;2023-03-20T15:19:14;98236.80;;;14.38;57.12
56568;BME280;42456;49.956;20.004;2023-03-20T15:21:44;98235.91;;;14.33;57.32
56568;BME280;42456;49.956;20.004;2023-03-20T15:24:29;98235.30;;;14.30;57.60
56568;BME280;42456;49.956;20.004;2023-03-20T15:27:02;98234.32;;;14.27;57.59
56568;BME280;42456;49.956;20.004;2023-03-20T15:29:30;98232.51;;;14.26;57.84
56568;BME280;42456;49.956;20.004;2023-03-20T15:32:00;98236.61;;;14.26;58.16
56568;BME280;42456;49.956;20.004;2023-03-20T15:34:41;98232.69;;;14.27;58.06
56568;BME280;42456;49.956;20.004;2023-03-20T15:37:16;98232.53;;;14.27;58.18
56568;BME280;42456;49.956;20.004;2023-03-20T15:39:53;98239.69;;;14.26;58.33
56568;BME280;42456;49.956;20.004;2023-03-20T15:42:23;98235.71;;;14.24;58.49
56568;BME280;42456;49.956;20.004;2023-03-20T15:44:52;98239.77;;;14.23;58.55
56568;BME280;42456;49.956;20.004;2023-03-20T15:47:21;98241.47;;;14.20;58.50
56568;BME280;42456;49.956;20.004;2023-03-20T15:49:58;98244.16;;;14.16;58.73
56568;BME280;42456;49.956;20.004;2023-03-20T15:55:05;98244.75;;;14.08;58.85
56568;BME280;42456;49.956;20.004;2023-03-20T15:57:35;98248.55;;;14.05;59.07
56568;BME280;42456;49.956;20.004;2023-03-20T16:00:05;98246.28;;;14.01;59.20
56568;BME280;42456;49.956;20.004;2023-03-20T16:02:34;98249.27;;;13.97;59.22
56568;BME280;42456;49.956;20.004;2023-03-20T16:05:02;98253.44;;;13.93;59.58
56568;BME280;42456;49.956;20.004;2023-03-20T16:07:31;98252.88;;;13.89;59.45
56568;BME280;42456;49.956;20.004;2023-03-20T16:09:59;98252.70;;;13.85;59.51
56568;BME280;42456;49.956;20.004;2023-03-20T16:12:26;98260.95;;;13.82;59.52
56568;BME280;42456;49.956;20.004;2023-03-20T16:14:54;98263.31;;;13.77;59.65
56568;BME280;42456;49.956;20.004;2023-03-20T16:17:23;98261.96;;;13.73;59.85
56568;BME280;42456;49.956;20.004;2023-03-20T16:19:50;98262.56;;;13.68;59.84
56568;BME280;42456;49.956;20.004;2023-03-20T16:22:25;98260.69;;;13.64;59.89
56568;BME280;42456;49.956;20.004;2023-03-20T16:24:57;98261.96;;;13.60;60.04
56568;BME280;42456;49.956;20.004;2023-03-20T16:27:36;98263.77;;;13.55;60.08
56568;BME280;42456;49.956;20.004;2023-03-20T16:30:08;98260.27;;;13.51;60.28
56568;BME280;42456;49.956;20.004;2023-03-20T16:32:40;98261.23;;;13.47;60.38